Time;durP1;ratioP1;P1;durP2;ratioP2;P2;SDS_P1;SDS_P2;PMS_P1;PMS_P2;Temp;Humidity;BMP_temperature;BMP_pressure;BME280_temperature;BME280_humidity;BME280_pressure;Samples;Min_cycle;Max_cycle;Signal;HPM_P1;HPM_P2
2021/12/16 00:09:40;;;;;;;221.03;38.00;;;8.50;99.90;;;;;;5052897;28;20445;-76
2021/12/16 00:31:58;;;;;;;277.80;36.57;;;8.60;99.90;;;;;;5052453;28;20483;-75
2021/12/16 00:34:31;;;;;;;159.60;33.83;;;8.60;99.90;;;;;;5051946;28;20554;-75
2021/12/16 00:37:01;;;;;;;222.33;35.80;;;8.60;99.90;;;;;;5035206;28;20525;-75
2021/12/16 00:39:32;;;;;;;279.97;44.70;;;8.60;99.90;;;;;;5053072;28;20449;-75
2021/12/16 00:42:08;;;;;;;187.27;34.27;;;8.60;99.90;;;;;;5035210;28;20541;-75
2021/12/16 00:45:04;;;;;;;195.63;39.87;;;8.60;99.90;;;;;;5015551;28;20527;-76
2021/12/16 00:47:47;;;;;;;132.80;32.33;;;8.60;99.90;;;;;;5015259;28;20470;-75
2021/12/16 00:54:07;;;;;;;321.37;42.13;;;8.60;99.90;;;;;;5016517;28;20478;-75
2021/12/16 00:56:00;;;;;;;157.03;36.87;;;8.60;99.90;;;;;;5039137;28;20457;-75
2021/12/16 00:58:38;;;;;;;200.60;38.50;;;8.60;99.90;;;;;;5077536;28;20433;-75
2021/12/16 01:01:15;;;;;;;207.57;31.60;;;8.60;99.90;;;;;;5067972;28;20526;-75
2021/12/16 01:03:50;;;;;;;200.90;36.47;;;8.60;99.90;;;;;;5058054;28;20445;-76
2021/12/16 01:09:37;;;;;;;199.53;33.73;;;8.60;99.90;;;;;;5072904;28;20489;-75
2021/12/16 01:35:04;;;;;;;247.33;39.97;;;8.60;99.90;;;;;;5034946;28;20503;-76
2021/12/16 01:40:34;;;;;;;190.03;45.33;;;8.60;99.90;;;;;;5049009;28;20450;-75
2021/12/16 01:46:20;;;;;;;262.87;43.30;;;8.60;99.90;;;;;;5044325;28;20527;-75
2021/12/16 01:51:39;;;;;;;311.63;48.73;;;8.60;99.90;;;;;;5006558;28;20834;-76
2021/12/16 01:54:37;;;;;;;187.30;40.00;;;8.60;99.90;;;;;;5054619;28;20892;-76
2021/12/16 01:57:16;;;;;;;195.03;41.07;;;8.60;99.90;;;;;;5037814;28;21003;-75
2021/12/16 01:59:56;;;;;;;298.87;61.63;;;8.60;99.90;;;;;;5038373;28;20441;-75
2021/12/16 02:02:36;;;;;;;182.23;38.63;;;8.60;99.90;;;;;;5034366;28;20434;-75
2021/12/16 02:05:22;;;;;;;177.33;41.97;;;8.70;99.90;;;;;;5043927;28;21013;-75
2021/12/16 02:08:13;;;;;;;218.90;44.93;;;8.70;99.90;;;;;;5051357;28;20478;-76
2021/12/16 02:10:49;;;;;;;195.70;40.50;;;8.60;99.90;;;;;;5054296;28;20964;-75
2021/12/16 02:27:33;;;;;;;329.17;53.00;;;8.70;99.90;;;;;;5055112;28;20498;-75
2021/12/16 02:32:57;;;;;;;252.70;50.67;;;8.70;99.90;;;;;;5038233;28;20465;-75
2021/12/16 02:35:31;;;;;;;156.03;46.83;;;8.80;99.90;;;;;;5017368;28;20817;-75
2021/12/16 02:38:03;;;;;;;161.37;41.03;;;8.80;99.90;;;;;;5042275;28;20485;-76
2021/12/16 02:40:35;;;;;;;345.03;64.77;;;8.80;99.90;;;;;;5054553;28;20441;-76
2021/12/16 02:43:21;;;;;;;228.93;51.47;;;8.80;99.90;;;;;;5037279;28;20532;-75
2021/12/16 02:48:37;;;;;;;246.70;53.47;;;8.80;99.90;;;;;;5036974;28;20449;-75
2021/12/16 02:51:15;;;;;;;222.10;49.40;;;8.80;99.90;;;;;;5053794;28;20457;-76
2021/12/16 02:53:48;;;;;;;133.27;40.20;;;8.80;99.90;;;;;;5055863;28;20426;-75
2021/12/16 02:56:17;;;;;;;186.60;48.47;;;8.80;99.90;;;;;;5040830;28;20478;-75
2021/12/16 02:58:55;;;;;;;230.47;41.97;;;8.80;99.90;;;;;;5037762;28;20545;-76
2021/12/16 03:01:29;;;;;;;281.13;62.40;;;8.90;99.90;;;;;;5038438;28;20495;-75
2021/12/16 03:04:02;;;;;;;247.70;51.20;;;8.90;99.90;;;;;;5037962;28;20532;-75
2021/12/16 03:06:32;;;;;;;159.00;43.23;;;8.80;99.90;;;;;;5037016;28;21116;-75
2021/12/16 03:09:06;;;;;;;261.60;51.70;;;8.90;99.90;;;;;;5037235;28;20457;-75
2021/12/16 03:11:44;;;;;;;225.73;46.37;;;8.90;99.90;;;;;;5036668;28;20445;-75
2021/12/16 03:14:27;;;;;;;164.90;40.47;;;8.90;99.90;;;;;;5054919;28;20449;-75
2021/12/16 03:17:09;;;;;;;140.33;47.73;;;8.90;99.90;;;;;;5053218;28;21055;-75
2021/12/16 03:19:51;;;;;;;245.30;45.43;;;8.90;99.90;;;;;;5053008;28;20448;-75
2021/12/16 03:22:39;;;;;;;198.10;45.53;;;8.90;99.90;;;;;;5052876;28;20450;-75
2021/12/16 03:25:19;;;;;;;240.33;46.13;;;8.90;99.90;;;;;;5052741;28;20492;-75
2021/12/16 03:31:02;;;;;;;245.60;47.07;;;8.90;99.90;;;;;;5052614;28;20563;-75
2021/12/16 03:34:11;;;;;;;232.90;54.43;;;9.00;99.90;;;;;;5053281;28;20476;-75
2021/12/16 03:37:12;;;;;;;217.47;60.47;;;8.90;99.90;;;;;;5050118;28;20504;-75
2021/12/16 03:39:41;;;;;;;238.00;59.17;;;9.00;99.90;;;;;;5053972;28;20915;-75
2021/12/16 03:42:11;;;;;;;314.37;56.73;;;9.00;99.90;;;;;;5035745;28;20457;-75
2021/12/16 03:44:52;;;;;;;318.20;62.30;;;9.00;99.90;;;;;;5035756;28;20434;-75
2021/12/16 03:47:32;;;;;;;229.90;55.00;;;9.00;99.90;;;;;;5052362;28;20470;-75
2021/12/16 03:50:02;;;;;;;177.93;46.97;;;9.00;99.90;;;;;;5035637;28;20971;-75
2021/12/16 03:52:31;;;;;;;210.17;47.90;;;9.00;99.90;;;;;;5052184;28;20462;-75
2021/12/16 03:55:00;;;;;;;234.97;53.67;;;9.00;99.90;;;;;;5051643;28;20975;-75
2021/12/16 03:57:32;;;;;;;167.70;40.50;;;9.00;99.90;;;;;;5051903;28;20572;-75
2021/12/16 04:00:01;;;;;;;186.77;45.70;;;9.00;99.90;;;;;;5052082;28;21055;-75
2021/12/16 04:02:56;;;;;;;158.63;46.27;;;9.00;99.90;;;;;;5052804;28;20419;-75
2021/12/16 04:05:30;;;;;;;220.63;50.83;;;9.00;99.90;;;;;;5052238;28;21275;-75
2021/12/16 04:08:05;;;;;;;234.00;59.37;;;9.10;99.90;;;;;;5053614;28;20522;-75
2021/12/16 04:10:59;;;;;;;170.03;41.73;;;9.10;99.90;;;;;;5051335;28;20830;-75
2021/12/16 04:13:35;;;;;;;235.73;53.93;;;9.00;99.90;;;;;;5052652;28;20535;-75
2021/12/16 04:16:06;;;;;;;285.20;55.43;;;9.00;99.90;;;;;;5053513;28;20501;-75
2021/12/16 04:18:37;;;;;;;157.87;44.93;;;9.10;99.90;;;;;;5052096;28;20887;-75
2021/12/16 04:21:26;;;;;;;202.60;53.30;;;9.10;99.90;;;;;;5051797;28;20539;-75
2021/12/16 04:23:57;;;;;;;95.13;38.73;;;9.10;99.90;;;;;;5051793;28;20430;-75
2021/12/16 04:26:29;;;;;;;291.60;53.20;;;9.10;99.90;;;;;;5057672;28;20983;-75
2021/12/16 04:29:03;;;;;;;193.90;45.43;;;9.10;99.90;;;;;;5051841;28;20448;-77
2021/12/16 04:31:32;;;;;;;246.63;48.27;;;9.10;99.90;;;;;;5051782;28;20537;-77
2021/12/16 04:34:01;;;;;;;123.27;37.60;;;9.10;99.90;;;;;;5052905;28;20486;-77
2021/12/16 04:36:37;;;;;;;113.87;46.00;;;9.10;99.90;;;;;;5051925;28;20475;-77
2021/12/16 04:39:09;;;;;;;209.77;44.33;;;9.20;99.90;;;;;;5051966;28;20906;-77
2021/12/16 04:41:38;;;;;;;220.63;51.67;;;9.20;99.90;;;;;;5043080;28;20454;-77
2021/12/16 04:44:12;;;;;;;143.60;43.93;;;9.20;99.90;;;;;;5035102;28;20570;-77
2021/12/16 04:46:41;;;;;;;262.10;52.37;;;9.20;99.90;;;;;;5051567;28;20500;-77
2021/12/16 04:49:10;;;;;;;213.67;50.67;;;9.20;99.90;;;;;;5034678;28;20449;-77
2021/12/16 04:51:45;;;;;;;213.40;46.73;;;9.20;99.90;;;;;;5035755;28;20448;-77
2021/12/16 04:54:14;;;;;;;264.93;56.47;;;9.20;99.90;;;;;;5051713;28;20995;-77
2021/12/16 04:56:42;;;;;;;216.70;46.57;;;9.20;99.90;;;;;;5052353;28;20466;-77
2021/12/16 04:59:15;;;;;;;273.93;56.20;;;9.20;99.90;;;;;;5051608;28;20449;-77
2021/12/16 05:01:52;;;;;;;200.37;45.23;;;9.20;99.90;;;;;;5051634;28;20484;-77
2021/12/16 05:04:59;;;;;;;243.20;47.97;;;9.20;99.90;;;;;;5036684;28;20470;-77
2021/12/16 05:07:28;;;;;;;217.73;48.13;;;9.20;99.90;;;;;;5051364;28;20476;-76
2021/12/16 05:10:17;;;;;;;187.43;41.70;;;9.20;99.90;;;;;;5053241;28;20480;-77
2021/12/16 05:12:54;;;;;;;245.70;49.10;;;9.20;99.90;;;;;;5051428;28;20973;-76
2021/12/16 05:15:29;;;;;;;194.90;52.40;;;9.30;99.90;;;;;;5035477;28;20450;-77
2021/12/16 05:17:59;;;;;;;248.57;56.17;;;9.20;99.90;;;;;;5038550;28;20928;-77
2021/12/16 05:20:30;;;;;;;227.00;57.13;;;9.30;99.90;;;;;;5038345;28;21034;-77
2021/12/16 05:25:59;;;;;;;204.63;52.03;;;9.30;99.90;;;;;;5054875;28;20446;-76
2021/12/16 05:28:28;;;;;;;315.63;50.70;;;9.30;99.90;;;;;;5039529;28;20449;-77
2021/12/16 05:31:00;;;;;;;210.60;44.83;;;9.30;99.90;;;;;;5047663;28;20457;-77
2021/12/16 05:33:31;;;;;;;221.80;52.03;;;9.30;99.90;;;;;;5071711;28;20474;-77
2021/12/16 05:36:00;;;;;;;269.10;56.87;;;9.30;99.90;;;;;;5054706;28;20500;-77
2021/12/16 05:38:30;;;;;;;178.07;47.50;;;9.30;99.90;;;;;;5055317;28;20449;-77
2021/12/16 05:41:01;;;;;;;245.87;49.17;;;9.30;99.90;;;;;;5055291;28;20460;-77
2021/12/16 05:43:36;;;;;;;218.47;43.53;;;9.30;99.90;;;;;;5054658;28;20985;-76
2021/12/16 05:46:08;;;;;;;257.17;55.53;;;9.30;99.90;;;;;;5042218;28;20505;-76
2021/12/16 05:48:40;;;;;;;216.97;53.13;;;9.30;99.90;;;;;;5051524;28;20457;-77
2021/12/16 05:51:11;;;;;;;189.13;49.53;;;9.30;99.90;;;;;;5037651;28;20541;-77
2021/12/16 05:53:41;;;;;;;182.70;53.57;;;9.30;99.90;;;;;;5056489;28;20481;-77
2021/12/16 05:56:25;;;;;;;298.43;55.33;;;9.30;99.90;;;;;;5055250;28;20503;-77
2021/12/16 05:58:53;;;;;;;227.63;47.47;;;9.30;99.90;;;;;;5056139;28;20507;-77
2021/12/16 06:01:29;;;;;;;214.80;47.33;;;9.30;99.90;;;;;;5038374;28;20903;-77
2021/12/16 06:03:57;;;;;;;274.57;50.83;;;9.30;99.90;;;;;;5054435;28;20500;-77
2021/12/16 06:06:28;;;;;;;206.93;52.03;;;9.30;99.90;;;;;;5069070;28;20846;-77
2021/12/16 06:08:57;;;;;;;281.97;53.13;;;9.30;99.90;;;;;;5070947;28;20534;-77
2021/12/16 06:11:30;;;;;;;247.37;44.50;;;9.30;99.90;;;;;;5055695;28;20450;-77
2021/12/16 06:14:10;;;;;;;266.50;49.60;;;9.30;99.90;;;;;;5055677;28;20553;-77
2021/12/16 06:27:53;;;;;;;276.33;54.93;;;9.30;99.90;;;;;;5054787;28;20454;-77
2021/12/16 06:30:24;;;;;;;175.30;43.23;;;9.30;99.90;;;;;;5055054;28;20438;-76
2021/12/16 06:32:55;;;;;;;266.77;56.87;;;9.30;99.90;;;;;;5053781;28;20478;-76
2021/12/16 06:35:24;;;;;;;304.63;58.20;;;9.30;99.90;;;;;;5053699;28;20469;-77
2021/12/16 06:37:54;;;;;;;174.87;50.03;;;9.30;99.90;;;;;;5053671;28;20472;-77
2021/12/16 06:40:30;;;;;;;265.87;49.33;;;9.30;99.90;;;;;;5053935;28;20517;-77
2021/12/16 06:43:09;;;;;;;273.03;57.27;;;9.30;99.90;;;;;;5053581;28;20446;-77
2021/12/16 06:45:41;;;;;;;205.17;54.23;;;9.30;99.90;;;;;;5053555;28;20442;-77
2021/12/16 06:48:14;;;;;;;310.07;56.23;;;9.30;99.90;;;;;;5055119;28;20514;-77
2021/12/16 06:50:48;;;;;;;237.73;48.10;;;9.30;99.90;;;;;;5053722;28;20437;-77
2021/12/16 06:53:24;;;;;;;182.63;41.33;;;9.30;99.90;;;;;;5053370;28;20438;-77
2021/12/16 06:56:00;;;;;;;152.47;46.10;;;9.30;99.90;;;;;;5054485;28;20927;-76
2021/12/16 06:58:34;;;;;;;263.00;52.93;;;9.30;99.90;;;;;;5053314;28;20463;-77
2021/12/16 07:01:13;;;;;;;152.27;41.50;;;9.30;99.90;;;;;;5070020;28;20502;-76
2021/12/16 07:03:47;;;;;;;193.50;48.43;;;9.30;99.90;;;;;;5053247;28;20461;-76
2021/12/16 07:06:20;;;;;;;211.10;45.50;;;9.30;99.90;;;;;;5054430;28;20527;-76
2021/12/16 07:08:50;;;;;;;288.87;54.53;;;9.30;99.90;;;;;;5053068;28;20478;-76
2021/12/16 07:11:19;;;;;;;255.03;51.40;;;9.30;99.90;;;;;;5054576;28;20458;-77
2021/12/16 07:13:56;;;;;;;150.50;50.73;;;9.30;99.90;;;;;;5054066;28;20462;-76
2021/12/16 07:16:26;;;;;;;159.37;42.27;;;9.30;99.90;;;;;;5069553;28;20479;-76
2021/12/16 07:18:57;;;;;;;225.90;48.83;;;9.30;99.90;;;;;;5052853;28;20461;-77
2021/12/16 07:21:25;;;;;;;145.70;44.43;;;9.30;99.90;;;;;;5052887;28;20442;-77
2021/12/16 07:23:53;;;;;;;170.63;44.93;;;9.30;99.90;;;;;;5069453;28;20975;-77
2021/12/16 07:26:21;;;;;;;251.77;49.70;;;9.30;99.90;;;;;;5069744;28;20473;-77
2021/12/16 07:28:50;;;;;;;189.10;45.80;;;9.30;99.90;;;;;;5053955;28;20452;-76
2021/12/16 07:31:18;;;;;;;333.07;63.13;;;9.30;99.90;;;;;;5053930;28;20552;-76
2021/12/16 07:33:50;;;;;;;295.33;54.23;;;9.30;99.90;;;;;;5054072;28;20484;-76
2021/12/16 07:36:22;;;;;;;255.33;46.73;;;9.30;99.90;;;;;;5052447;28;20457;-76
2021/12/16 07:38:51;;;;;;;278.67;52.33;;;9.30;99.90;;;;;;5068384;28;20800;-76
2021/12/16 07:41:20;;;;;;;301.03;61.07;;;9.30;99.90;;;;;;5069953;28;20504;-76
2021/12/16 07:43:58;;;;;;;231.73;49.37;;;9.30;99.90;;;;;;5052317;28;20952;-76
2021/12/16 07:46:30;;;;;;;175.77;47.43;;;9.30;99.90;;;;;;5052255;28;20466;-76
2021/12/16 07:48:59;;;;;;;166.17;45.83;;;9.30;99.90;;;;;;5069237;28;20856;-76
2021/12/16 07:51:29;;;;;;;365.63;63.97;;;9.30;99.90;;;;;;5068760;28;20446;-76
2021/12/16 07:53:57;;;;;;;182.80;47.87;;;9.30;99.90;;;;;;5053342;28;20441;-76
2021/12/16 07:56:25;;;;;;;231.27;50.33;;;9.30;99.90;;;;;;5053549;28;20563;-76
2021/12/16 07:58:56;;;;;;;234.97;53.77;;;9.30;99.90;;;;;;5053691;28;20449;-76
2021/12/16 08:01:26;;;;;;;188.30;47.10;;;9.30;99.90;;;;;;5052175;28;20442;-76
2021/12/16 08:03:55;;;;;;;174.57;47.43;;;9.30;99.90;;;;;;5053088;28;20433;-77
2021/12/16 08:06:26;;;;;;;217.30;57.40;;;9.30;99.90;;;;;;5068713;28;21027;-77
2021/12/16 08:08:58;;;;;;;313.37;60.20;;;9.30;99.90;;;;;;5068843;28;20465;-77
2021/12/16 08:11:30;;;;;;;208.40;50.33;;;9.30;99.90;;;;;;5052073;28;20450;-77
2021/12/16 08:14:03;;;;;;;295.43;61.60;;;9.30;99.90;;;;;;5068852;28;20506;-77
2021/12/16 08:16:33;;;;;;;174.83;49.30;;;9.30;99.90;;;;;;5051875;28;20572;-77
2021/12/16 08:19:02;;;;;;;224.80;51.63;;;9.30;99.90;;;;;;5051946;28;20817;-77
2021/12/16 08:21:30;;;;;;;212.50;51.37;;;9.30;99.90;;;;;;5053378;28;20517;-77
2021/12/16 08:24:05;;;;;;;241.30;57.63;;;9.30;99.90;;;;;;5053409;28;20449;-77
2021/12/16 08:26:34;;;;;;;266.00;58.20;;;9.30;99.90;;;;;;5053499;28;20551;-76
2021/12/16 08:29:05;;;;;;;214.77;50.80;;;9.30;99.90;;;;;;5068527;28;20524;-76
2021/12/16 08:31:35;;;;;;;252.53;56.33;;;9.40;99.90;;;;;;5051856;28;20449;-76
2021/12/16 08:34:04;;;;;;;219.27;51.10;;;9.40;99.90;;;;;;5053650;28;21024;-77
2021/12/16 08:36:33;;;;;;;134.13;49.60;;;9.40;99.90;;;;;;5053062;28;20456;-76
2021/12/16 08:39:09;;;;;;;240.73;60.00;;;9.40;99.90;;;;;;5051795;28;20434;-77
2021/12/16 08:41:42;;;;;;;200.47;46.20;;;9.40;99.90;;;;;;5053009;28;20487;-76
2021/12/16 08:44:10;;;;;;;279.80;59.87;;;9.40;99.90;;;;;;5053241;28;20422;-76
2021/12/16 08:46:42;;;;;;;311.70;60.87;;;9.40;99.90;;;;;;5052706;28;20462;-77
2021/12/16 08:49:11;;;;;;;145.90;45.53;;;9.40;99.90;;;;;;5052505;28;20532;-76
2021/12/16 08:51:43;;;;;;;332.03;64.57;;;9.40;99.90;;;;;;5056839;28;20457;-76
2021/12/16 08:54:15;;;;;;;238.10;55.50;;;9.40;99.90;;;;;;5055577;28;20448;-76
2021/12/16 08:56:44;;;;;;;312.93;60.37;;;9.40;99.90;;;;;;5057080;28;20486;-76
2021/12/16 08:59:13;;;;;;;228.70;50.13;;;9.50;99.90;;;;;;5057352;28;20943;-76
2021/12/16 09:01:46;;;;;;;147.57;45.70;;;9.40;99.90;;;;;;5057036;28;20463;-76
2021/12/16 09:04:23;;;;;;;319.03;59.97;;;9.40;99.90;;;;;;5055498;28;20433;-76
2021/12/16 09:06:56;;;;;;;236.70;53.93;;;9.40;99.90;;;;;;5055977;28;20478;-76
2021/12/16 09:09:25;;;;;;;215.13;52.33;;;9.50;99.90;;;;;;5072593;28;20791;-76
2021/12/16 09:12:04;;;;;;;227.67;54.13;;;9.50;99.90;;;;;;5057063;28;20520;-76
2021/12/16 09:14:44;;;;;;;220.27;50.10;;;9.50;99.90;;;;;;5055516;28;21022;-76
2021/12/16 09:20:59;;;;;;;223.20;54.40;;;9.40;99.90;;;;;;4975299;28;20934;-76
2021/12/16 09:23:39;;;;;;;311.33;58.87;;;9.50;99.90;;;;;;5056876;28;20794;-76
2021/12/16 09:26:12;;;;;;;180.00;54.80;;;9.50;99.90;;;;;;5056336;28;20538;-76
2021/12/16 09:28:40;;;;;;;376.47;64.57;;;9.50;99.90;;;;;;5055651;28;20446;-76
2021/12/16 09:31:14;;;;;;;206.50;56.20;;;9.50;99.90;;;;;;5071666;28;20821;-76
2021/12/16 09:33:45;;;;;;;312.43;64.50;;;9.50;99.90;;;;;;5056298;28;20440;-76
2021/12/16 09:36:16;;;;;;;222.37;52.73;;;9.50;99.90;;;;;;5056033;28;20477;-76
2021/12/16 09:38:45;;;;;;;272.73;55.53;;;9.50;99.90;;;;;;5055150;28;20422;-76
2021/12/16 09:41:15;;;;;;;237.97;54.47;;;9.50;99.90;;;;;;5054631;28;20463;-76
2021/12/16 09:43:46;;;;;;;289.73;59.40;;;9.50;99.90;;;;;;5056283;28;20434;-76
2021/12/16 09:46:17;;;;;;;287.30;60.17;;;9.60;99.90;;;;;;5055895;28;20472;-76
2021/12/16 09:48:46;;;;;;;193.43;49.03;;;9.60;99.90;;;;;;5056230;28;20889;-76
2021/12/16 09:51:22;;;;;;;316.50;64.73;;;9.60;99.90;;;;;;5055855;28;20442;-76
2021/12/16 09:53:53;;;;;;;291.90;62.50;;;9.60;99.90;;;;;;5055804;28;20477;-76
2021/12/16 09:56:26;;;;;;;310.53;65.53;;;9.60;99.90;;;;;;5071103;28;20495;-76
2021/12/16 09:58:56;;;;;;;258.87;56.43;;;9.60;99.90;;;;;;5071220;28;20442;-76
2021/12/16 10:01:25;;;;;;;214.50;50.23;;;9.60;99.90;;;;;;5055397;28;21000;-76
2021/12/16 10:03:56;;;;;;;226.23;51.13;;;9.60;99.90;;;;;;5055706;28;20438;-76
2021/12/16 10:06:25;;;;;;;272.53;56.43;;;9.70;99.90;;;;;;5055730;28;20847;-76
2021/12/16 10:08:54;;;;;;;146.20;46.30;;;9.70;99.90;;;;;;5055743;28;21039;-76
2021/12/16 10:11:23;;;;;;;279.80;53.37;;;9.70;99.90;;;;;;5055774;28;20857;-76
2021/12/16 10:14:02;;;;;;;167.60;43.23;;;9.70;99.90;;;;;;5055421;28;20434;-76
2021/12/16 10:19:22;;;;;;;317.40;51.63;;;9.70;99.90;;;;;;5054016;28;20449;-76
2021/12/16 10:21:51;;;;;;;204.07;50.17;;;9.70;99.90;;;;;;5070709;28;20449;-76
2021/12/16 10:24:24;;;;;;;197.13;45.63;;;9.80;99.90;;;;;;5055480;28;20446;-76
2021/12/16 10:27:08;;;;;;;284.50;55.93;;;9.80;99.90;;;;;;5070592;28;20458;-76
2021/12/16 10:29:38;;;;;;;251.43;53.70;;;9.80;99.90;;;;;;5070516;28;20438;-76
2021/12/16 10:32:28;;;;;;;365.10;85.90;;;9.80;99.90;;;;;;5055053;28;20447;-76
2021/12/16 10:34:58;;;;;;;187.03;46.47;;;9.80;99.90;;;;;;5070388;28;20442;-76
2021/12/16 10:37:30;;;;;;;246.60;51.03;;;9.80;99.90;;;;;;5070366;28;20516;-76
2021/12/16 10:40:23;;;;;;;220.90;53.33;;;9.80;99.90;;;;;;5055455;28;20497;-77
2021/12/16 10:42:53;;;;;;;287.73;59.07;;;9.90;99.90;;;;;;5057250;28;20431;-77
2021/12/16 10:45:30;;;;;;;114.57;40.17;;;9.90;99.90;;;;;;5058308;28;20422;-76
2021/12/16 10:48:23;;;;;;;211.17;51.87;;;9.90;99.90;;;;;;5055318;28;20987;-77
2021/12/16 10:51:03;;;;;;;185.23;47.13;;;9.90;99.90;;;;;;5055250;28;20442;-76
2021/12/16 10:54:11;;;;;;;267.57;58.17;;;9.90;99.90;;;;;;5056045;28;20418;-76
2021/12/16 10:56:58;;;;;;;222.33;57.33;;;9.90;99.90;;;;;;5055637;28;20844;-76
2021/12/16 10:59:35;;;;;;;332.03;67.17;;;9.90;99.90;;;;;;5054826;28;20552;-76
2021/12/16 11:02:14;;;;;;;170.20;48.83;;;9.90;99.90;;;;;;5053768;28;20434;-76
2021/12/16 11:04:49;;;;;;;263.07;57.33;;;9.90;99.90;;;;;;5070438;28;20461;-76
2021/12/16 11:07:23;;;;;;;258.73;56.13;;;9.90;99.90;;;;;;5054664;28;20457;-76
2021/12/16 11:10:01;;;;;;;264.67;50.43;;;9.90;99.90;;;;;;5054641;28;20437;-77
2021/12/16 11:12:47;;;;;;;351.17;64.17;;;9.90;99.90;;;;;;5070110;28;20935;-77
2021/12/16 11:15:25;;;;;;;251.13;59.00;;;9.90;99.90;;;;;;5053243;28;20477;-76
2021/12/16 11:17:55;;;;;;;243.60;49.57;;;10.00;99.90;;;;;;5069481;28;20488;-76
2021/12/16 11:20:32;;;;;;;337.83;67.40;;;10.00;99.90;;;;;;5069730;28;20438;-76
2021/12/16 11:23:05;;;;;;;137.90;44.97;;;10.00;99.90;;;;;;5052874;28;20480;-76
2021/12/16 11:25:36;;;;;;;328.30;53.93;;;10.00;99.90;;;;;;5054428;28;20529;-76
2021/12/16 11:28:15;;;;;;;370.90;62.50;;;10.00;99.90;;;;;;5052730;28;20472;-77
2021/12/16 11:30:51;;;;;;;263.77;58.20;;;10.00;99.90;;;;;;5054447;28;20521;-76
2021/12/16 11:33:26;;;;;;;239.97;48.10;;;10.00;99.90;;;;;;5054243;28;20465;-76
2021/12/16 11:35:59;;;;;;;191.47;40.40;;;10.10;99.90;;;;;;5069155;28;20560;-76
2021/12/16 11:38:32;;;;;;;187.67;42.83;;;10.10;99.90;;;;;;5054136;28;20524;-76
2021/12/16 11:41:11;;;;;;;164.00;42.17;;;10.10;99.90;;;;;;5069066;28;20811;-76
2021/12/16 11:43:54;;;;;;;387.57;60.40;;;10.10;99.90;;;;;;5069092;28;20446;-76
2021/12/16 11:46:28;;;;;;;384.37;61.57;;;10.10;99.90;;;;;;5053873;28;20800;-76
2021/12/16 11:49:20;;;;;;;450.47;78.63;;;10.10;99.90;;;;;;5053707;28;20479;-76
2021/12/16 11:51:52;;;;;;;195.80;37.50;;;10.10;99.90;;;;;;5054234;28;20918;-76
2021/12/16 11:54:25;;;;;;;219.87;48.97;;;10.10;99.90;;;;;;5053361;28;20448;-76
2021/12/16 11:56:58;;;;;;;267.47;57.70;;;10.20;99.90;;;;;;5052112;28;20604;-76
2021/12/16 11:59:29;;;;;;;253.20;45.70;;;10.20;99.90;;;;;;5053812;28;20454;-76
2021/12/16 12:02:00;;;;;;;232.60;42.83;;;10.20;99.90;;;;;;5052198;28;20446;-76
2021/12/16 12:04:33;;;;;;;140.77;41.83;;;10.20;99.90;;;;;;5053640;28;20418;-76
2021/12/16 12:07:10;;;;;;;302.57;49.57;;;10.20;99.90;;;;;;5051937;28;20488;-76
2021/12/16 12:09:41;;;;;;;312.73;54.80;;;10.20;99.90;;;;;;5052148;28;20465;-76
2021/12/16 12:12:10;;;;;;;279.70;48.37;;;10.20;99.90;;;;;;5052187;28;21099;-76
2021/12/16 12:14:41;;;;;;;359.87;60.57;;;10.20;99.90;;;;;;5052028;28;20452;-76
2021/12/16 12:17:16;;;;;;;290.97;42.67;;;10.20;99.90;;;;;;5053032;28;20494;-76
2021/12/16 12:19:48;;;;;;;219.73;46.13;;;10.20;99.90;;;;;;5053429;28;20421;-76
2021/12/16 12:22:21;;;;;;;295.07;49.83;;;10.20;99.90;;;;;;5054525;28;20517;-76
2021/12/16 12:24:50;;;;;;;315.03;61.80;;;10.20;99.90;;;;;;5051871;28;20453;-76
2021/12/16 12:27:20;;;;;;;339.27;55.53;;;10.20;99.90;;;;;;5068550;28;20470;-76
2021/12/16 12:29:52;;;;;;;287.17;51.83;;;10.20;99.90;;;;;;5053258;28;20449;-76
2021/12/16 12:32:26;;;;;;;364.40;48.03;;;10.20;99.90;;;;;;5051941;28;20454;-76
2021/12/16 12:34:58;;;;;;;226.80;46.43;;;10.20;99.90;;;;;;5051769;28;20460;-76
2021/12/16 12:37:31;;;;;;;271.17;49.87;;;10.20;99.90;;;;;;5053243;28;20925;-76
2021/12/16 12:40:04;;;;;;;270.07;41.43;;;10.30;99.90;;;;;;5051861;28;20442;-76
2021/12/16 12:42:32;;;;;;;295.87;46.60;;;10.30;99.90;;;;;;5052985;28;20423;-76
2021/12/16 12:45:02;;;;;;;311.30;53.37;;;10.30;99.90;;;;;;5052156;28;20454;-76
2021/12/16 12:47:35;;;;;;;351.90;62.20;;;10.20;99.90;;;;;;5068287;28;20572;-76
2021/12/16 12:50:14;;;;;;;382.13;59.47;;;10.20;99.90;;;;;;5053619;28;20429;-76
2021/12/16 12:52:45;;;;;;;288.60;58.53;;;10.20;99.90;;;;;;5053222;28;20964;-76
2021/12/16 12:55:21;;;;;;;361.57;66.30;;;10.20;99.90;;;;;;5053182;28;20431;-76
2021/12/16 12:57:49;;;;;;;239.20;53.00;;;10.20;99.90;;;;;;5053163;28;20473;-76
2021/12/16 13:00:27;;;;;;;427.97;58.03;;;10.20;99.90;;;;;;5052854;28;20473;-76
2021/12/16 13:03:07;;;;;;;213.43;44.77;;;10.20;99.90;;;;;;5053109;28;20433;-77
2021/12/16 13:05:35;;;;;;;184.17;42.80;;;10.20;99.90;;;;;;5052831;28;20448;-76
2021/12/16 13:08:07;;;;;;;401.97;60.93;;;10.20;99.90;;;;;;5052875;28;20473;-76
2021/12/16 13:10:39;;;;;;;309.13;56.63;;;10.20;99.90;;;;;;5068116;28;20521;-76
2021/12/16 13:13:30;;;;;;;390.90;71.53;;;10.10;99.90;;;;;;5068156;28;20438;-76
2021/12/16 13:25:03;;;;;;;302.80;48.87;;;10.10;99.90;;;;;;5035247;28;20529;-76
2021/12/16 13:27:35;;;;;;;404.23;63.53;;;10.10;99.90;;;;;;5052804;28;20456;-76
2021/12/16 13:30:18;;;;;;;244.53;39.60;;;10.10;99.90;;;;;;5052490;28;20509;-76
2021/12/16 13:33:14;;;;;;;203.43;37.57;;;10.10;99.90;;;;;;5052782;28;20421;-76
2021/12/16 13:35:52;;;;;;;318.80;42.37;;;10.10;99.90;;;;;;5052466;28;20430;-76
2021/12/16 13:38:22;;;;;;;332.80;58.83;;;10.00;99.90;;;;;;5056004;28;20465;-76
2021/12/16 13:40:51;;;;;;;316.90;57.60;;;10.00;99.90;;;;;;5056362;28;20469;-76
2021/12/16 13:43:27;;;;;;;380.70;56.63;;;10.10;99.90;;;;;;5071352;28;20446;-76
2021/12/16 13:46:20;;;;;;;286.37;45.67;;;10.00;99.90;;;;;;5056182;28;20497;-76
2021/12/16 13:58:06;;;;;;;391.57;62.93;;;10.00;99.90;;;;;;5055890;28;20545;-76
2021/12/16 14:03:15;;;;;;;372.17;64.90;;;10.00;99.90;;;;;;5054481;28;20441;-76
2021/12/16 14:05:56;;;;;;;252.27;54.53;;;10.00;99.90;;;;;;5055598;28;20536;-76
2021/12/16 14:08:45;;;;;;;321.47;43.13;;;10.00;99.90;;;;;;5055853;28;20422;-76
2021/12/16 14:14:44;;;;;;;291.27;36.10;;;10.00;99.90;;;;;;5045133;28;20960;-76
2021/12/16 14:17:42;;;;;;;239.00;38.47;;;10.00;99.90;;;;;;5055288;28;20976;-77
2021/12/16 14:23:08;;;;;;;202.90;29.10;;;10.00;99.90;;;;;;5054035;28;20944;-76
2021/12/16 14:25:52;;;;;;;306.43;58.90;;;10.00;99.90;;;;;;5053962;28;20442;-76
2021/12/16 14:31:40;;;;;;;209.40;33.93;;;10.00;99.90;;;;;;5031375;28;20802;-76
2021/12/16 14:39:54;;;;;;;148.03;37.00;;;9.90;99.90;;;;;;5070375;28;20813;-76
2021/12/16 14:42:37;;;;;;;419.83;65.17;;;9.90;99.90;;;;;;5054916;28;20428;-76
2021/12/16 14:45:15;;;;;;;315.63;54.30;;;9.90;99.90;;;;;;5055181;28;20428;-76
2021/12/16 14:50:42;;;;;;;229.53;36.13;;;9.90;99.90;;;;;;5054831;28;20430;-76
2021/12/16 14:53:23;;;;;;;169.90;32.60;;;9.90;99.90;;;;;;5055329;28;20766;-76
2021/12/16 14:55:55;;;;;;;245.23;36.50;;;9.90;99.90;;;;;;5054873;28;20441;-76
2021/12/16 14:58:25;;;;;;;298.37;45.20;;;9.90;99.90;;;;;;5069998;28;20517;-76
2021/12/16 15:00:57;;;;;;;209.10;39.70;;;9.90;99.90;;;;;;5070019;28;20449;-76
2021/12/16 15:03:30;;;;;;;365.93;63.27;;;9.90;99.90;;;;;;5054906;28;20445;-76
2021/12/16 15:06:02;;;;;;;306.47;53.20;;;9.90;99.90;;;;;;5069776;28;20457;-76
2021/12/16 15:08:37;;;;;;;281.97;45.73;;;9.80;99.90;;;;;;5054541;28;20529;-76
2021/12/16 15:11:10;;;;;;;379.67;52.70;;;9.80;99.90;;;;;;5069786;28;20441;-76
2021/12/16 15:13:45;;;;;;;386.87;49.70;;;9.80;99.90;;;;;;5069644;28;20435;-76
2021/12/16 15:36:37;;;;;;;90.60;21.70;;;9.80;99.90;;;;;;5053020;28;20553;-76
2021/12/16 15:39:24;;;;;;;214.60;33.43;;;9.80;99.90;;;;;;5052580;28;20470;-76
2021/12/16 15:44:46;;;;;;;198.83;41.17;;;9.80;99.90;;;;;;5052446;28;20435;-76
2021/12/16 15:47:16;;;;;;;300.33;52.00;;;9.80;99.90;;;;;;5053495;28;20458;-76
2021/12/16 15:49:45;;;;;;;202.67;37.13;;;9.80;99.90;;;;;;5053669;28;20845;-76
2021/12/16 15:52:13;;;;;;;284.50;41.20;;;9.80;99.90;;;;;;5053570;28;20433;-76
2021/12/16 15:54:47;;;;;;;309.53;50.30;;;9.80;99.90;;;;;;5052159;28;20453;-76